Strona główna
METAR-TAF:

METAR-TAF

Lotnisko :

Port lotniczy Londyn-Luton

Luton, Anglia

Szerokość geograficzna: 51-52N, Długość geograficzna: 000-22W, wysokość: 160 m

Aktualna obserwacja pogody

Raport powstał 34 minut temu, godzina 03:20 UTC
Wiatr 6 kt od północno-północny wschód
Temperatura 12°C
Wilgotność 76%
Ciśnienie 1022 hPa
Widzialność 10 km lub więcej
Zachmurzenie całkowite na wysokości 3400 ft

METAR: EGGW 150320Z AUTO 02006KT 9999 OVC034 12/08 Q1022

czas: 04:54 (03:54 UTC)

Prognoza

Raport powstał 4 godziny i 55 minut temu, godzina 22:59 UTC
Prognoza ważna od 15 godzina 00 UTC do 15 godzina 24 UTC
Wiatr 8 kt od północ
Widzialność 10 km lub więcej
Rozproszone chmury na wysokości 3500 ft

TAF: EGGW 142259Z 1500/1524 01008KT 9999 SCT035

Obserwacja i prognoza pogody dla ponad 4000 lotnisk (raport METAR i TAF).

Dostępne stacje oznaczono żółtymi i czerwonymi punktami na mapie.

Najedź kursorem aby zobaczyć nazwę stacji.

Kliknij aby zobaczyć obserwacje i prognozy pogody.

Aby zmienić mapę: kliknij na zielony przycisk z czarnym krzyżykiem, aby powiększyć; na zielony przycisk z myślnikiem, aby pomniejszyć; na zielone strzałki, aby przejść do map sąsiednich.


METAR-TAF: